sensor_id;sensor_type;location;lat;lon;timestamp;pressure;altitude;pressure_sealevel;temperature;humidity
6198;BME280;3132;42.622;23.328;2023-05-12T00:02:11;93011.72;;;9.47;88.03
6198;BME280;3132;42.622;23.328;2023-05-12T00:04:36;93006.50;;;9.47;87.66
6198;BME280;3132;42.622;23.328;2023-05-12T00:07:04;93006.25;;;9.43;87.37
6198;BME280;3132;42.622;23.328;2023-05-12T00:09:31;93015.63;;;9.49;87.33
6198;BME280;3132;42.622;23.328;2023-05-12T00:11:56;93000.53;;;9.36;87.54
6198;BME280;3132;42.622;23.328;2023-05-12T00:14:22;93004.69;;;9.37;87.53
6198;BME280;3132;42.622;23.328;2023-05-12T00:16:47;93016.94;;;9.32;87.88
6198;BME280;3132;42.622;23.328;2023-05-12T00:19:19;93015.88;;;9.33;88.32
6198;BME280;3132;42.622;23.328;2023-05-12T00:21:45;93014.84;;;9.29;87.79
6198;BME280;3132;42.622;23.328;2023-05-12T00:24:10;92996.09;;;9.07;89.44
6198;BME280;3132;42.622;23.328;2023-05-12T00:26:36;93016.66;;;9.13;90.38
6198;BME280;3132;42.622;23.328;2023-05-12T00:29:01;93013.53;;;9.21;90.20
6198;BME280;3132;42.622;23.328;2023-05-12T00:31:28;92986.19;;;9.04;91.03
6198;BME280;3132;42.622;23.328;2023-05-12T00:33:54;93019.00;;;9.05;91.59
6198;BME280;3132;42.622;23.328;2023-05-12T00:36:19;93017.41;;;8.94;92.63
6198;BME280;3132;42.622;23.328;2023-05-12T00:38:45;92992.44;;;8.98;92.72
6198;BME280;3132;42.622;23.328;2023-05-12T00:41:10;93021.59;;;9.00;93.09
6198;BME280;3132;42.622;23.328;2023-05-12T00:43:36;93022.34;;;8.90;94.06
6198;BME280;3132;42.622;23.328;2023-05-12T00:46:03;93025.19;;;8.79;95.38
6198;BME280;3132;42.622;23.328;2023-05-12T00:48:30;93001.75;;;8.74;96.50
6198;BME280;3132;42.622;23.328;2023-05-12T00:50:56;93018.41;;;8.73;96.84
6198;BME280;3132;42.622;23.328;2023-05-12T00:53:23;93019.44;;;8.72;96.83
6198;BME280;3132;42.622;23.328;2023-05-12T00:55:48;93019.94;;;8.59;97.64
6198;BME280;3132;42.622;23.328;2023-05-12T00:58:13;93021.47;;;8.50;99.26
6198;BME280;3132;42.622;23.328;2023-05-12T01:00:39;93022.75;;;8.47;99.64
6198;BME280;3132;42.622;23.328;2023-05-12T01:03:04;93017.00;;;8.35;100.00
6198;BME280;3132;42.622;23.328;2023-05-12T01:05:45;93021.75;;;8.48;100.00
6198;BME280;3132;42.622;23.328;2023-05-12T01:08:12;93016.44;;;8.28;100.00
6198;BME280;3132;42.622;23.328;2023-05-12T01:10:42;93019.81;;;8.29;100.00
6198;BME280;3132;42.622;23.328;2023-05-12T01:13:08;93020.59;;;8.24;100.00
6198;BME280;3132;42.622;23.328;2023-05-12T01:15:34;93016.59;;;8.11;100.00
6198;BME280;3132;42.622;23.328;2023-05-12T01:18:03;93015.94;;;8.26;100.00
6198;BME280;3132;42.622;23.328;2023-05-12T01:20:30;93010.09;;;8.09;100.00
6198;BME280;3132;42.622;23.328;2023-05-12T01:22:58;93022.63;;;8.17;100.00
6198;BME280;3132;42.622;23.328;2023-05-12T01:25:24;93014.53;;;8.13;100.00
6198;BME280;3132;42.622;23.328;2023-05-12T01:27:51;93027.03;;;8.16;100.00
6198;BME280;3132;42.622;23.328;2023-05-12T01:30:18;93017.66;;;8.10;100.00
6198;BME280;3132;42.622;23.328;2023-05-12T01:32:44;93020.25;;;8.15;100.00
6198;BME280;3132;42.622;23.328;2023-05-12T01:35:10;93017.44;;;8.17;100.00
6198;BME280;3132;42.622;23.328;2023-05-12T01:37:35;93008.78;;;8.06;100.00
6198;BME280;3132;42.622;23.328;2023-05-12T01:40:01;93009.56;;;8.07;100.00
6198;BME280;3132;42.622;23.328;2023-05-12T01:42:26;93008.25;;;8.04;100.00
6198;BME280;3132;42.622;23.328;2023-05-12T01:44:52;93011.13;;;8.03;100.00
6198;BME280;3132;42.622;23.328;2023-05-12T01:47:17;93012.91;;;8.02;100.00
6198;BME280;3132;42.622;23.328;2023-05-12T01:49:43;92963.91;;;7.74;100.00
6198;BME280;3132;42.622;23.328;2023-05-12T01:52:09;93012.97;;;8.17;100.00
6198;BME280;3132;42.622;23.328;2023-05-12T01:54:35;92972.59;;;7.95;100.00
6198;BME280;3132;42.622;23.328;2023-05-12T01:57:00;93005.66;;;8.09;100.00
6198;BME280;3132;42.622;23.328;2023-05-12T01:59:26;93002.56;;;8.12;100.00
6198;BME280;3132;42.622;23.328;2023-05-12T02:01:51;93010.09;;;8.14;100.00
6198;BME280;3132;42.622;23.328;2023-05-12T02:04:17;92991.84;;;7.99;100.00
6198;BME280;3132;42.622;23.328;2023-05-12T02:06:42;93007.25;;;8.15;100.00
6198;BME280;3132;42.622;23.328;2023-05-12T02:09:07;93010.91;;;8.14;100.00
6198;BME280;3132;42.622;23.328;2023-05-12T02:11:33;93000.50;;;8.14;100.00
6198;BME280;3132;42.622;23.328;2023-05-12T02:13:58;93006.75;;;8.18;100.00
6198;BME280;3132;42.622;23.328;2023-05-12T02:16:24;93008.06;;;8.21;100.00
6198;BME280;3132;42.622;23.328;2023-05-12T02:18:49;92984.88;;;8.14;100.00
6198;BME280;3132;42.622;23.328;2023-05-12T02:21:14;93006.22;;;8.16;100.00
6198;BME280;3132;42.622;23.328;2023-05-12T02:23:40;93004.31;;;7.97;100.00
6198;BME280;3132;42.622;23.328;2023-05-12T02:26:05;92975.66;;;7.87;100.00
6198;BME280;3132;42.622;23.328;2023-05-12T02:28:31;93010.88;;;8.09;100.00
6198;BME280;3132;42.622;23.328;2023-05-12T02:30:58;93008.38;;;8.25;100.00
6198;BME280;3132;42.622;23.328;2023-05-12T02:33:23;93003.66;;;8.22;100.00
6198;BME280;3132;42.622;23.328;2023-05-12T02:35:49;93005.78;;;8.25;100.00
6198;BME280;3132;42.622;23.328;2023-05-12T02:38:14;92998.97;;;8.18;100.00
6198;BME280;3132;42.622;23.328;2023-05-12T02:40:41;93001.59;;;8.24;100.00
6198;BME280;3132;42.622;23.328;2023-05-12T02:43:06;93003.31;;;8.08;100.00
6198;BME280;3132;42.622;23.328;2023-05-12T02:45:31;93005.63;;;7.99;100.00
6198;BME280;3132;42.622;23.328;2023-05-12T02:47:57;93010.50;;;7.86;100.00
6198;BME280;3132;42.622;23.328;2023-05-12T02:50:22;93002.34;;;7.72;100.00
6198;BME280;3132;42.622;23.328;2023-05-12T02:52:48;93005.41;;;7.59;100.00
6198;BME280;3132;42.622;23.328;2023-05-12T02:55:14;93000.72;;;7.56;100.00
6198;BME280;3132;42.622;23.328;2023-05-12T02:57:39;92995.09;;;7.38;100.00
6198;BME280;3132;42.622;23.328;2023-05-12T03:00:06;93008.69;;;7.45;100.00
6198;BME280;3132;42.622;23.328;2023-05-12T03:02:35;92995.34;;;7.36;100.00
6198;BME280;3132;42.622;23.328;2023-05-12T03:05:02;92983.81;;;7.17;100.00
6198;BME280;3132;42.622;23.328;2023-05-12T03:07:27;92986.66;;;7.21;100.00
6198;BME280;3132;42.622;23.328;2023-05-12T03:09:53;93002.53;;;7.24;100.00
6198;BME280;3132;42.622;23.328;2023-05-12T03:12:19;93002.53;;;7.24;100.00
6198;BME280;3132;42.622;23.328;2023-05-12T03:14:44;92996.25;;;7.15;100.00
6198;BME280;3132;42.622;23.328;2023-05-12T03:17:10;93012.56;;;7.11;100.00
6198;BME280;3132;42.622;23.328;2023-05-12T03:19:35;93019.06;;;7.13;100.00
6198;BME280;3132;42.622;23.328;2023-05-12T03:22:01;93015.47;;;7.19;100.00
6198;BME280;3132;42.622;23.328;2023-05-12T03:24:27;93034.16;;;7.16;100.00
6198;BME280;3132;42.622;23.328;2023-05-12T03:26:53;93039.44;;;7.26;100.00
6198;BME280;3132;42.622;23.328;2023-05-12T03:29:19;93018.06;;;7.14;100.00
6198;BME280;3132;42.622;23.328;2023-05-12T03:31:45;93027.75;;;7.29;100.00
6198;BME280;3132;42.622;23.328;2023-05-12T03:34:10;93034.28;;;7.31;100.00
6198;BME280;3132;42.622;23.328;2023-05-12T03:36:36;93043.69;;;7.37;100.00
6198;BME280;3132;42.622;23.328;2023-05-12T03:39:01;93032.31;;;7.43;100.00
6198;BME280;3132;42.622;23.328;2023-05-12T03:41:27;93015.03;;;7.27;100.00
6198;BME280;3132;42.622;23.328;2023-05-12T03:43:53;93020.06;;;7.39;100.00
6198;BME280;3132;42.622;23.328;2023-05-12T03:46:18;93039.00;;;7.39;100.00
6198;BME280;3132;42.622;23.328;2023-05-12T03:48:44;93015.53;;;7.24;100.00
6198;BME280;3132;42.622;23.328;2023-05-12T03:51:09;93033.50;;;7.31;100.00
6198;BME280;3132;42.622;23.328;2023-05-12T03:53:34;93040.59;;;7.40;100.00
6198;BME280;3132;42.622;23.328;2023-05-12T03:56:06;93041.91;;;7.43;100.00
6198;BME280;3132;42.622;23.328;2023-05-12T03:58:32;93039.25;;;7.38;100.00
6198;BME280;3132;42.622;23.328;2023-05-12T04:00:57;93010.13;;;7.31;100.00
6198;BME280;3132;42.622;23.328;2023-05-12T04:03:23;93045.09;;;7.55;100.00
6198;BME280;3132;42.622;23.328;2023-05-12T04:05:48;93046.97;;;7.59;100.00
6198;BME280;3132;42.622;23.328;2023-05-12T04:08:13;93050.09;;;7.61;100.00
6198;BME280;3132;42.622;23.328;2023-05-12T04:10:39;93051.66;;;7.62;100.00
6198;BME280;3132;42.622;23.328;2023-05-12T04:13:06;93054.56;;;7.71;100.00
6198;BME280;3132;42.622;23.328;2023-05-12T04:15:35;93060.34;;;7.78;100.00
6198;BME280;3132;42.622;23.328;2023-05-12T04:18:01;93042.34;;;7.66;100.00
6198;BME280;3132;42.622;23.328;2023-05-12T04:20:27;93056.41;;;7.75;100.00
6198;BME280;3132;42.622;23.328;2023-05-12T04:22:52;93062.16;;;7.77;100.00
6198;BME280;3132;42.622;23.328;2023-05-12T04:25:17;93059.63;;;7.87;100.00
6198;BME280;3132;42.622;23.328;2023-05-12T04:27:43;93052.66;;;7.93;100.00
6198;BME280;3132;42.622;23.328;2023-05-12T04:30:08;93061.50;;;7.97;100.00
6198;BME280;3132;42.622;23.328;2023-05-12T04:32:34;93050.81;;;7.88;100.00
6198;BME280;3132;42.622;23.328;2023-05-12T04:35:00;93043.75;;;7.84;100.00
6198;BME280;3132;42.622;23.328;2023-05-12T04:37:26;93051.09;;;7.92;100.00
6198;BME280;3132;42.622;23.328;2023-05-12T04:39:51;93049.16;;;7.77;100.00
6198;BME280;3132;42.622;23.328;2023-05-12T04:42:16;93049.25;;;7.87;100.00
6198;BME280;3132;42.622;23.328;2023-05-12T04:44:42;93053.19;;;8.00;100.00
6198;BME280;3132;42.622;23.328;2023-05-12T04:47:10;93036.25;;;7.87;100.00
6198;BME280;3132;42.622;23.328;2023-05-12T04:49:35;93054.69;;;7.86;100.00
6198;BME280;3132;42.622;23.328;2023-05-12T04:52:01;93049.50;;;7.91;100.00
6198;BME280;3132;42.622;23.328;2023-05-12T04:54:26;93054.47;;;7.97;100.00
6198;BME280;3132;42.622;23.328;2023-05-12T04:56:51;93057.63;;;7.99;100.00
6198;BME280;3132;42.622;23.328;2023-05-12T04:59:17;93055.00;;;7.94;100.00
6198;BME280;3132;42.622;23.328;2023-05-12T05:01:42;93054.94;;;7.89;100.00
6198;BME280;3132;42.622;23.328;2023-05-12T05:04:08;93014.16;;;7.53;100.00
6198;BME280;3132;42.622;23.328;2023-05-12T05:06:33;93064.84;;;7.87;100.00
6198;BME280;3132;42.622;23.328;2023-05-12T05:08:59;93067.94;;;7.89;100.00
6198;BME280;3132;42.622;23.328;2023-05-12T05:11:24;93052.56;;;7.83;100.00
6198;BME280;3132;42.622;23.328;2023-05-12T05:13:50;93066.16;;;7.90;100.00
6198;BME280;3132;42.622;23.328;2023-05-12T05:16:16;93057.50;;;7.79;100.00
6198;BME280;3132;42.622;23.328;2023-05-12T05:18:41;93066.44;;;7.93;100.00
6198;BME280;3132;42.622;23.328;2023-05-12T05:21:11;93071.16;;;8.01;100.00
6198;BME280;3132;42.622;23.328;2023-05-12T05:23:38;93059.97;;;8.01;100.00
6198;BME280;3132;42.622;23.328;2023-05-12T05:26:03;93075.94;;;8.19;100.00
6198;BME280;3132;42.622;23.328;2023-05-12T05:28:29;93077.97;;;8.12;100.00
6198;BME280;3132;42.622;23.328;2023-05-12T05:30:55;93076.72;;;8.20;100.00
6198;BME280;3132;42.622;23.328;2023-05-12T05:33:20;93063.13;;;8.03;100.00
6198;BME280;3132;42.622;23.328;2023-05-12T05:35:46;93064.97;;;8.07;100.00
6198;BME280;3132;42.622;23.328;2023-05-12T05:38:12;93076.13;;;8.03;100.00
6198;BME280;3132;42.622;23.328;2023-05-12T05:40:37;93052.44;;;7.99;100.00
6198;BME280;3132;42.622;23.328;2023-05-12T05:43:03;93079.03;;;8.16;100.00
6198;BME280;3132;42.622;23.328;2023-05-12T05:45:28;93077.75;;;8.19;100.00
6198;BME280;3132;42.622;23.328;2023-05-12T05:47:54;93050.19;;;8.18;100.00
6198;BME280;3132;42.622;23.328;2023-05-12T05:50:19;93080.19;;;8.31;100.00
6198;BME280;3132;42.622;23.328;2023-05-12T05:52:44;93080.69;;;8.28;100.00
6198;BME280;3132;42.622;23.328;2023-05-12T05:55:10;93075.28;;;8.39;100.00
6198;BME280;3132;42.622;23.328;2023-05-12T05:57:35;93030.59;;;8.00;100.00
6198;BME280;3132;42.622;23.328;2023-05-12T06:00:02;93086.50;;;8.45;100.00
6198;BME280;3132;42.622;23.328;2023-05-12T06:02:29;93084.19;;;8.48;100.00
6198;BME280;3132;42.622;23.328;2023-05-12T06:04:56;93070.91;;;8.55;100.00
6198;BME280;3132;42.622;23.328;2023-05-12T06:07:21;93081.88;;;8.62;100.00
6198;BME280;3132;42.622;23.328;2023-05-12T06:09:47;93075.66;;;8.68;100.00
6198;BME280;3132;42.622;23.328;2023-05-12T06:12:12;93083.53;;;8.78;100.00
6198;BME280;3132;42.622;23.328;2023-05-12T06:14:38;93087.19;;;8.87;100.00
6198;BME280;3132;42.622;23.328;2023-05-12T06:17:03;93096.31;;;8.94;100.00
6198;BME280;3132;42.622;23.328;2023-05-12T06:19:29;93100.78;;;9.04;100.00
6198;BME280;3132;42.622;23.328;2023-05-12T06:21:54;93077.53;;;8.87;100.00
6198;BME280;3132;42.622;23.328;2023-05-12T06:24:19;93096.84;;;9.01;99.03
6198;BME280;3132;42.622;23.328;2023-05-12T06:26:45;93076.50;;;8.88;99.70
6198;BME280;3132;42.622;23.328;2023-05-12T06:29:10;93102.88;;;9.17;99.83
6198;BME280;3132;42.622;23.328;2023-05-12T06:31:35;93108.09;;;9.22;99.20
6198;BME280;3132;42.622;23.328;2023-05-12T06:34:01;93096.13;;;9.21;99.04
6198;BME280;3132;42.622;23.328;2023-05-12T06:36:27;93101.84;;;9.18;99.07
6198;BME280;3132;42.622;23.328;2023-05-12T06:38:53;93113.31;;;9.22;99.39
6198;BME280;3132;42.622;23.328;2023-05-12T06:41:19;93114.63;;;9.19;99.28
6198;BME280;3132;42.622;23.328;2023-05-12T06:43:46;93095.06;;;9.17;98.81
6198;BME280;3132;42.622;23.328;2023-05-12T06:46:11;93120.09;;;9.33;97.59
6198;BME280;3132;42.622;23.328;2023-05-12T06:48:36;93116.22;;;9.40;97.75
6198;BME280;3132;42.622;23.328;2023-05-12T06:51:02;93129.00;;;9.47;98.14
6198;BME280;3132;42.622;23.328;2023-05-12T06:53:28;93123.78;;;9.47;97.58
6198;BME280;3132;42.622;23.328;2023-05-12T06:55:54;93078.16;;;9.29;97.30
6198;BME280;3132;42.622;23.328;2023-05-12T06:58:19;93100.88;;;9.54;96.54
6198;BME280;3132;42.622;23.328;2023-05-12T07:00:46;93109.72;;;9.53;97.11
6198;BME280;3132;42.622;23.328;2023-05-12T07:03:12;93114.94;;;9.63;97.11
6198;BME280;3132;42.622;23.328;2023-05-12T07:05:37;93108.16;;;9.62;96.11
6198;BME280;3132;42.622;23.328;2023-05-12T07:08:02;93110.75;;;9.62;95.66
6198;BME280;3132;42.622;23.328;2023-05-12T07:10:28;93119.63;;;9.61;96.80
6198;BME280;3132;42.622;23.328;2023-05-12T07:12:53;93099.81;;;9.60;97.05
6198;BME280;3132;42.622;23.328;2023-05-12T07:15:19;93118.06;;;9.75;96.90
6198;BME280;3132;42.622;23.328;2023-05-12T07:17:44;93116.00;;;9.77;95.66
6198;BME280;3132;42.622;23.328;2023-05-12T07:20:10;93116.22;;;9.80;95.60
6198;BME280;3132;42.622;23.328;2023-05-12T07:22:35;93127.72;;;9.74;96.27
6198;BME280;3132;42.622;23.328;2023-05-12T07:25:01;93128.00;;;9.88;94.40
6198;BME280;3132;42.622;23.328;2023-05-12T07:27:27;93131.63;;;9.87;95.21
6198;BME280;3132;42.622;23.328;2023-05-12T07:29:53;93135.03;;;9.93;94.92
6198;BME280;3132;42.622;23.328;2023-05-12T07:32:18;93127.19;;;9.88;94.86
6198;BME280;3132;42.622;23.328;2023-05-12T07:34:43;93133.72;;;10.05;93.92
6198;BME280;3132;42.622;23.328;2023-05-12T07:37:09;93130.31;;;10.00;93.69
6198;BME280;3132;42.622;23.328;2023-05-12T07:39:34;93135.28;;;9.96;93.20
6198;BME280;3132;42.622;23.328;2023-05-12T07:42:00;93129.28;;;10.01;93.13
6198;BME280;3132;42.622;23.328;2023-05-12T07:44:25;93139.97;;;10.04;93.25
6198;BME280;3132;42.622;23.328;2023-05-12T07:46:52;93133.72;;;10.00;92.97
6198;BME280;3132;42.622;23.328;2023-05-12T07:49:17;93137.91;;;10.16;93.73
6198;BME280;3132;42.622;23.328;2023-05-12T07:51:42;93139.97;;;10.39;92.61
6198;BME280;3132;42.622;23.328;2023-05-12T07:54:08;93138.91;;;10.45;92.19
6198;BME280;3132;42.622;23.328;2023-05-12T07:56:33;93125.81;;;10.60;90.10
6198;BME280;3132;42.622;23.328;2023-05-12T07:58:59;93130.88;;;11.00;89.88
6198;BME280;3132;42.622;23.328;2023-05-12T08:01:25;93132.91;;;11.18;88.10
6198;BME280;3132;42.622;23.328;2023-05-12T08:03:50;93136.94;;;11.50;86.86
6198;BME280;3132;42.622;23.328;2023-05-12T08:06:16;93138.47;;;11.56;86.12
6198;BME280;3132;42.622;23.328;2023-05-12T08:08:42;93123.78;;;11.65;85.23
6198;BME280;3132;42.622;23.328;2023-05-12T08:11:08;93134.63;;;11.87;84.86
6198;BME280;3132;42.622;23.328;2023-05-12T08:13:35;93137.03;;;12.12;83.71
6198;BME280;3132;42.622;23.328;2023-05-12T08:16:01;93140.06;;;12.24;81.24
6198;BME280;3132;42.622;23.328;2023-05-12T08:18:26;93147.88;;;12.29;80.58
6198;BME280;3132;42.622;23.328;2023-05-12T08:20:52;93136.91;;;11.98;82.35
6198;BME280;3132;42.622;23.328;2023-05-12T08:23:17;93136.94;;;11.93;83.39
6198;BME280;3132;42.622;23.328;2023-05-12T08:25:42;93142.50;;;12.15;82.19
6198;BME280;3132;42.622;23.328;2023-05-12T08:28:09;93106.22;;;12.04;82.65
6198;BME280;3132;42.622;23.328;2023-05-12T08:30:36;93127.84;;;12.43;81.31
6198;BME280;3132;42.622;23.328;2023-05-12T08:33:02;93117.25;;;12.29;80.10
6198;BME280;3132;42.622;23.328;2023-05-12T08:35:28;93137.78;;;12.46;81.71
6198;BME280;3132;42.622;23.328;2023-05-12T08:37:55;93141.59;;;12.58;81.43
6198;BME280;3132;42.622;23.328;2023-05-12T08:40:22;93158.22;;;12.72;81.22
6198;BME280;3132;42.622;23.328;2023-05-12T08:42:56;93150.75;;;12.84;79.27
6198;BME280;3132;42.622;23.328;2023-05-12T08:45:27;93130.09;;;12.78;77.77
6198;BME280;3132;42.622;23.328;2023-05-12T08:47:53;93154.75;;;12.77;77.85
6198;BME280;3132;42.622;23.328;2023-05-12T08:50:21;93161.00;;;12.81;77.49
6198;BME280;3132;42.622;23.328;2023-05-12T08:52:47;93155.72;;;13.10;77.75
6198;BME280;3132;42.622;23.328;2023-05-12T08:55:14;93150.72;;;13.13;76.94
6198;BME280;3132;42.622;23.328;2023-05-12T08:57:40;93152.53;;;12.89;75.83
6198;BME280;3132;42.622;23.328;2023-05-12T09:00:10;93149.25;;;12.78;78.28
6198;BME280;3132;42.622;23.328;2023-05-12T09:02:38;93151.53;;;12.85;78.35
6198;BME280;3132;42.622;23.328;2023-05-12T09:05:04;93150.69;;;12.66;77.52
6198;BME280;3132;42.622;23.328;2023-05-12T09:07:30;93137.34;;;12.62;78.27
6198;BME280;3132;42.622;23.328;2023-05-12T09:09:57;93154.97;;;12.57;78.92
6198;BME280;3132;42.622;23.328;2023-05-12T09:12:24;93147.72;;;12.72;78.01
6198;BME280;3132;42.622;23.328;2023-05-12T09:14:59;93147.78;;;12.67;77.20
6198;BME280;3132;42.622;23.328;2023-05-12T09:17:27;93141.63;;;12.53;76.86
6198;BME280;3132;42.622;23.328;2023-05-12T09:19:52;93139.69;;;12.40;77.93
6198;BME280;3132;42.622;23.328;2023-05-12T09:22:26;93112.00;;;12.01;78.66
6198;BME280;3132;42.622;23.328;2023-05-12T09:24:52;93143.59;;;12.38;78.54
6198;BME280;3132;42.622;23.328;2023-05-12T09:27:26;93138.34;;;12.43;78.71
6198;BME280;3132;42.622;23.328;2023-05-12T09:29:51;93139.81;;;12.54;77.76
6198;BME280;3132;42.622;23.328;2023-05-12T09:32:17;93121.66;;;12.34;77.67
6198;BME280;3132;42.622;23.328;2023-05-12T09:34:42;93136.66;;;12.52;77.65
6198;BME280;3132;42.622;23.328;2023-05-12T09:37:08;93132.16;;;12.81;77.16
6198;BME280;3132;42.622;23.328;2023-05-12T09:39:34;93125.13;;;13.05;76.95
6198;BME280;3132;42.622;23.328;2023-05-12T09:42:00;93135.03;;;13.32;76.00
6198;BME280;3132;42.622;23.328;2023-05-12T09:44:26;93140.31;;;13.27;75.15
6198;BME280;3132;42.622;23.328;2023-05-12T09:46:54;93138.78;;;13.44;74.82
6198;BME280;3132;42.622;23.328;2023-05-12T09:49:21;93133.91;;;13.14;74.84
6198;BME280;3132;42.622;23.328;2023-05-12T09:51:57;93138.81;;;12.97;75.54
6198;BME280;3132;42.622;23.328;2023-05-12T09:54:30;93137.78;;;13.40;74.69
6198;BME280;3132;42.622;23.328;2023-05-12T09:57:01;93141.91;;;13.46;74.81
6198;BME280;3132;42.622;23.328;2023-05-12T09:59:30;93137.94;;;13.67;73.89
6198;BME280;3132;42.622;23.328;2023-05-12T10:01:58;93135.47;;;13.94;73.50
6198;BME280;3132;42.622;23.328;2023-05-12T10:04:24;93125.59;;;13.86;73.07
6198;BME280;3132;42.622;23.328;2023-05-12T10:06:50;93138.56;;;13.96;73.03
6198;BME280;3132;42.622;23.328;2023-05-12T10:09:23;93131.34;;;14.39;72.23
6198;BME280;3132;42.622;23.328;2023-05-12T10:11:50;93136.53;;;14.58;71.40
6198;BME280;3132;42.622;23.328;2023-05-12T10:14:16;93137.16;;;14.95;68.57
6198;BME280;3132;42.622;23.328;2023-05-12T10:16:44;93130.00;;;14.23;71.65
6198;BME280;3132;42.622;23.328;2023-05-12T10:19:09;93124.28;;;14.67;70.54
6198;BME280;3132;42.622;23.328;2023-05-12T10:21:36;93127.03;;;14.11;71.24
6198;BME280;3132;42.622;23.328;2023-05-12T10:24:03;93127.78;;;14.62;70.56
6198;BME280;3132;42.622;23.328;2023-05-12T10:26:29;93130.53;;;14.84;68.35
6198;BME280;3132;42.622;23.328;2023-05-12T10:28:56;93118.47;;;15.10;66.78
6198;BME280;3132;42.622;23.328;2023-05-12T10:31:22;93130.44;;;14.89;67.94
6198;BME280;3132;42.622;23.328;2023-05-12T10:33:56;93127.03;;;14.89;68.52
6198;BME280;3132;42.622;23.328;2023-05-12T10:36:22;93118.47;;;15.10;66.17
6198;BME280;3132;42.622;23.328;2023-05-12T10:38:47;93115.91;;;15.05;67.49
6198;BME280;3132;42.622;23.328;2023-05-12T10:41:16;93121.88;;;14.97;67.26
6198;BME280;3132;42.622;23.328;2023-05-12T10:43:43;93129.06;;;14.78;68.75
6198;BME280;3132;42.622;23.328;2023-05-12T10:48:54;93118.41;;;15.64;65.78
6198;BME280;3132;42.622;23.328;2023-05-12T10:51:25;93122.47;;;15.70;65.47
6198;BME280;3132;42.622;23.328;2023-05-12T10:53:57;93123.72;;;15.37;67.35
6198;BME280;3132;42.622;23.328;2023-05-12T10:56:25;93127.53;;;15.45;63.87
6198;BME280;3132;42.622;23.328;2023-05-12T10:59:22;93119.22;;;15.38;65.65
6198;BME280;3132;42.622;23.328;2023-05-12T11:02:04;93127.69;;;15.62;64.33
6198;BME280;3132;42.622;23.328;2023-05-12T11:04:52;93133.06;;;14.89;67.73
6198;BME280;3132;42.622;23.328;2023-05-12T11:07:21;93136.75;;;15.56;65.39
6198;BME280;3132;42.622;23.328;2023-05-12T11:09:48;93136.97;;;15.59;63.99
6198;BME280;3132;42.622;23.328;2023-05-12T11:12:14;93130.31;;;15.35;63.59
6198;BME280;3132;42.622;23.328;2023-05-12T11:14:42;93134.44;;;15.54;65.21
6198;BME280;3132;42.622;23.328;2023-05-12T11:17:07;93133.19;;;15.74;63.07
6198;BME280;3132;42.622;23.328;2023-05-12T11:19:37;93134.25;;;14.97;68.41
6198;BME280;3132;42.622;23.328;2023-05-12T11:22:11;93127.03;;;15.02;66.42
6198;BME280;3132;42.622;23.328;2023-05-12T11:24:39;93141.25;;;15.15;64.88
6198;BME280;3132;42.622;23.328;2023-05-12T11:27:06;93146.38;;;14.66;67.96
6198;BME280;3132;42.622;23.328;2023-05-12T11:29:36;93127.66;;;13.71;71.95
6198;BME280;3132;42.622;23.328;2023-05-12T11:32:04;93136.16;;;13.81;70.43
6198;BME280;3132;42.622;23.328;2023-05-12T11:34:29;93123.09;;;14.45;69.71
6198;BME280;3132;42.622;23.328;2023-05-12T11:36:55;93130.91;;;14.64;69.11
6198;BME280;3132;42.622;23.328;2023-05-12T11:39:22;93137.28;;;14.44;69.72
6198;BME280;3132;42.622;23.328;2023-05-12T11:41:48;93140.78;;;14.40;71.85
6198;BME280;3132;42.622;23.328;2023-05-12T11:49:29;93126.72;;;14.63;68.39
6198;BME280;3132;42.622;23.328;2023-05-12T11:51:59;93127.53;;;14.91;67.08
6198;BME280;3132;42.622;23.328;2023-05-12T11:54:27;93120.09;;;14.93;67.71
6198;BME280;3132;42.622;23.328;2023-05-12T11:56:54;93132.09;;;15.26;67.19
6198;BME280;3132;42.622;23.328;2023-05-12T11:59:31;93121.47;;;15.04;65.79
6198;BME280;3132;42.622;23.328;2023-05-12T12:01:59;93135.50;;;14.86;68.70
6198;BME280;3132;42.622;23.328;2023-05-12T12:07:01;93135.91;;;15.20;66.99
6198;BME280;3132;42.622;23.328;2023-05-12T12:09:34;93135.03;;;15.11;65.52
6198;BME280;3132;42.622;23.328;2023-05-12T12:12:01;93136.38;;;15.22;64.31
6198;BME280;3132;42.622;23.328;2023-05-12T12:14:29;93139.69;;;15.14;64.23
6198;BME280;3132;42.622;23.328;2023-05-12T12:16:55;93139.41;;;15.02;64.16
6198;BME280;3132;42.622;23.328;2023-05-12T12:19:20;93142.13;;;15.10;65.57
6198;BME280;3132;42.622;23.328;2023-05-12T12:21:45;93134.16;;;15.02;64.46
6198;BME280;3132;42.622;23.328;2023-05-12T12:24:11;93114.94;;;14.61;63.53
6198;BME280;3132;42.622;23.328;2023-05-12T12:26:36;93133.91;;;14.71;65.44
6198;BME280;3132;42.622;23.328;2023-05-12T12:29:03;93121.72;;;14.48;65.05
6198;BME280;3132;42.622;23.328;2023-05-12T12:31:29;93137.25;;;14.77;64.05
6198;BME280;3132;42.622;23.328;2023-05-12T12:33:54;93133.63;;;14.73;66.35
6198;BME280;3132;42.622;23.328;2023-05-12T12:36:19;93135.38;;;14.77;63.32
6198;BME280;3132;42.622;23.328;2023-05-12T12:38:45;93131.28;;;14.71;63.52
6198;BME280;3132;42.622;23.328;2023-05-12T12:41:12;93141.53;;;14.73;63.94
6198;BME280;3132;42.622;23.328;2023-05-12T12:43:37;93132.44;;;14.52;65.44
6198;BME280;3132;42.622;23.328;2023-05-12T12:46:03;93136.75;;;14.75;64.80
6198;BME280;3132;42.622;23.328;2023-05-12T12:48:28;93127.03;;;14.29;67.83
6198;BME280;3132;42.622;23.328;2023-05-12T12:50:54;93127.94;;;14.38;64.66
6198;BME280;3132;42.622;23.328;2023-05-12T12:53:20;93131.69;;;14.00;67.19
6198;BME280;3132;42.622;23.328;2023-05-12T12:55:45;93110.22;;;13.80;67.58
6198;BME280;3132;42.622;23.328;2023-05-12T12:58:11;93132.50;;;14.33;65.12
6198;BME280;3132;42.622;23.328;2023-05-12T13:00:37;93125.19;;;14.30;64.87
6198;BME280;3132;42.622;23.328;2023-05-12T13:03:03;93115.66;;;14.02;65.90
6198;BME280;3132;42.622;23.328;2023-05-12T13:05:29;93117.34;;;14.43;64.28
6198;BME280;3132;42.622;23.328;2023-05-12T13:07:54;93120.34;;;14.37;63.68
6198;BME280;3132;42.622;23.328;2023-05-12T13:10:20;93122.44;;;14.54;61.00
6198;BME280;3132;42.622;23.328;2023-05-12T13:12:45;93117.94;;;14.54;62.09
6198;BME280;3132;42.622;23.328;2023-05-12T13:15:11;93119.56;;;14.36;64.94
6198;BME280;3132;42.622;23.328;2023-05-12T13:17:36;93120.38;;;14.51;61.88
6198;BME280;3132;42.622;23.328;2023-05-12T13:20:02;93118.19;;;14.25;62.74